Diwopu, China

1:05 AM CST on February 22, 2018 (GMT +0800)
Diwopu | | Change Station

Elev 2146 ft 43.90 °N, 87.47 °E | Updated 35 minutes ago

Fog
Fog
14 °F
Feels Like 7 °F
N
4
Wind Variable Wind from Variable

Today
High -- | Low -- °F
--% Chance of Precip.
Yesterday
High -- | Low -- °F
Precip. -- in
Pressure 30.33 in
Visibility 2.5 miles
Clouds
Windchill 7 °F
Dew Point 9 °F
Humidity 79%
Rainfall 0.00 in
Snow Depth Not available.
8:59 AM 7:48 PM
Waxing Crescent, 32% visible
METAR ZWWW 211630Z VRB02MPS 4000 BR NSC M10/M13 Q1027 NOSIG
Pressure 30.33 in
Visibility 2.5 miles
Clouds
Windchill 7 °F
Dew Point 9 °F
Humidity 79%
Rainfall 0.00 in
Snow Depth Not available.
8:59 AM 7:48 PM
Waxing Crescent, 32% visible
METAR ZWWW 211630Z VRB02MPS 4000 BR NSC M10/M13 Q1027 NOSIG

Get Severe Weather Alerts

Thanks for signing up!

Be on the lookout for a verification email in your inbox.

You'll start receiving the daily forecast at 6 AM.

×

10-Day Weather Forecast

No radar image for this location.
×

Almanac

Astronomy

Feb. 22, 2018 Rise Set
Actual Time
Civil Twilight
Nautical Twilight
Astronomical Twilight
Moon
Length of Visible Light
Length of Day
Tomorrow will be .
, % of the Moon is Illuminated

Today's Extremes

Country Highs Country Lows

Community

WunderPhotos

Category 6

Welcome to Category 6. This is the collective home for Weather Underground's featured writeups by Dr. Jeff Masters (right), Bob Henson (left), Chris Burt, and other regular contributors.

Nearby

Air Quality

  Air Quality AQ Index Pollutant
Not available.

Snow Depth

Station Depth Elevation

Earthquake Activity

City Distance Mag. Time & Date
Minimum magnitude displayed is 2.5.

Coastal Water Temperatures

Place Temperature

Stations

Nearby Weather Stations

Station Location Temp. Windchill Dew Point Humidity Wind Precip. Elev Updated Type